createdAt,value
2022-08-08T00:01:19.781Z,93195.81
2022-08-08T00:04:25.405Z,93195.91
2022-08-08T00:07:20.252Z,93201.78
2022-08-08T00:09:58.947Z,93202.09
2022-08-08T00:12:31.669Z,93199.44
2022-08-08T00:15:12.938Z,93192.91
2022-08-08T00:18:03.307Z,93205.91
2022-08-08T00:20:50.493Z,93207.19
2022-08-08T00:23:47.801Z,93215.41
2022-08-08T00:26:29.737Z,93214.34
2022-08-08T00:29:07.896Z,93207.50
2022-08-08T00:32:20.751Z,93202.25
2022-08-08T00:35:07.444Z,93205.78
2022-08-08T00:38:02.812Z,93206.84
2022-08-08T00:41:12.596Z,93204.22
2022-08-08T00:43:58.992Z,93202.31
2022-08-08T00:47:01.684Z,93197.03
2022-08-08T00:49:59.690Z,93208.44
2022-08-08T00:52:48.802Z,93205.84
2022-08-08T00:56:11.264Z,93209.09
2022-08-08T00:59:13.802Z,93201.72
2022-08-08T01:01:50.131Z,93199.91
2022-08-08T01:04:57.169Z,93204.69
2022-08-08T01:07:55.666Z,93200.97
2022-08-08T01:10:37.374Z,93200.25
2022-08-08T01:13:43.685Z,93211.09
2022-08-08T01:16:27.865Z,93202.91
2022-08-08T01:19:52.481Z,93205.03
2022-08-08T01:23:00.373Z,93211.63
2022-08-08T01:25:56.361Z,93207.97
2022-08-08T01:28:51.699Z,93197.94
2022-08-08T01:32:13.819Z,93199.22
2022-08-08T01:35:01.363Z,93200.59
2022-08-08T01:38:12.872Z,93207.75
2022-08-08T01:40:56.767Z,93207.78
2022-08-08T01:43:40.523Z,93217.53
2022-08-08T01:46:12.127Z,93204.09
2022-08-08T01:49:03.223Z,93204.38
2022-08-08T01:52:04.752Z,93199.84
2022-08-08T01:55:19.405Z,93201.44
2022-08-08T01:58:12.973Z,93202.78
2022-08-08T02:01:00.243Z,93207.53
2022-08-08T02:03:56.211Z,93203.56
2022-08-08T02:06:43.481Z,93201.75
2022-08-08T02:10:04.018Z,93197.00
2022-08-08T02:12:42.787Z,93189.34
2022-08-08T02:15:34.747Z,93191.72
2022-08-08T02:18:26.699Z,93184.63
2022-08-08T02:21:35.178Z,93188.56
2022-08-08T02:24:17.627Z,93194.66
2022-08-08T02:27:03.598Z,93186.47
2022-08-08T02:29:46.757Z,93187.78
2022-08-08T02:32:32.181Z,93199.41
2022-08-08T02:35:31.228Z,93188.59
2022-08-08T02:38:42.075Z,93187.28
2022-08-08T02:42:07.834Z,93190.69
2022-08-08T02:45:09.610Z,93192.56
2022-08-08T02:48:06.799Z,93189.91
2022-08-08T02:50:56.143Z,93189.88
2022-08-08T02:53:47.470Z,93194.88
2022-08-08T02:56:42.436Z,93181.22
2022-08-08T02:59:58.181Z,93193.34
2022-08-08T03:03:09.777Z,93188.06
2022-08-08T03:06:03.965Z,93186.22
2022-08-08T03:09:04.989Z,93186.44
2022-08-08T03:12:08.055Z,93193.59
2022-08-08T03:16:02.228Z,93189.09
2022-08-08T03:18:04.833Z,93184.34
2022-08-08T03:20:52.091Z,93192.22
2022-08-08T03:23:30.455Z,93204.63
2022-08-08T03:26:07.478Z,93198.28
2022-08-08T03:28:46.039Z,93205.66
2022-08-08T03:32:06.978Z,93200.13
2022-08-08T03:34:32.068Z,93204.56
2022-08-08T03:36:58.639Z,93210.06
2022-08-08T03:39:25.766Z,93206.34
2022-08-08T03:42:27.198Z,93211.91
2022-08-08T03:44:41.038Z,93211.38
2022-08-08T03:47:22.070Z,93215.84
2022-08-08T03:49:59.680Z,93210.81
2022-08-08T03:52:33.732Z,93216.34
2022-08-08T03:55:09.590Z,93216.06
2022-08-08T03:58:31.181Z,93215.00
2022-08-08T04:00:30.905Z,93221.31
2022-08-08T04:03:11.463Z,93222.06
2022-08-08T04:05:47.311Z,93231.25
2022-08-08T04:08:32.794Z,93229.38
2022-08-08T04:11:03.304Z,93220.44
2022-08-08T04:14:03.943Z,93234.66
2022-08-08T04:16:38.364Z,93226.50
2022-08-08T04:19:23.387Z,93225.66
2022-08-08T04:21:54.347Z,93233.03
2022-08-08T04:24:29.813Z,93239.91
2022-08-08T04:27:00.817Z,93237.78
2022-08-08T04:29:33.361Z,93243.78
2022-08-08T04:32:06.855Z,93238.28
2022-08-08T04:34:49.508Z,93240.94
2022-08-08T04:37:21.194Z,93240.44
2022-08-08T04:40:04.933Z,93246.22
2022-08-08T04:42:37.173Z,93248.31
2022-08-08T04:45:05.760Z,93243.81
2022-08-08T04:47:36.788Z,93244.06
2022-08-08T04:50:23.615Z,93248.28
2022-08-08T04:52:58.652Z,93237.78
2022-08-08T04:55:37.929Z,93247.28
2022-08-08T04:58:17.576Z,93255.69
2022-08-08T05:00:48.348Z,93253.56
2022-08-08T05:04:06.477Z,93264.03
2022-08-08T05:06:12.625Z,93260.84
2022-08-08T05:08:51.930Z,93263.25
2022-08-08T05:11:24.447Z,93260.34
2022-08-08T05:14:01.256Z,93254.06
2022-08-08T05:16:53.189Z,93262.50
2022-08-08T05:20:10.051Z,93269.34
2022-08-08T05:22:08.230Z,93260.44
2022-08-08T05:24:38.951Z,93262.84
2022-08-08T05:27:07.788Z,93257.88
2022-08-08T05:29:37.194Z,93263.66
2022-08-08T05:32:08.379Z,93260.53
2022-08-08T05:34:41.671Z,93263.69
2022-08-08T05:37:17.382Z,93264.28
2022-08-08T05:39:55.473Z,93255.94
2022-08-08T05:42:34.668Z,93263.84
2022-08-08T05:45:24.564Z,93270.69
2022-08-08T05:47:59.968Z,93263.63
2022-08-08T05:50:29.606Z,93263.91
2022-08-08T05:52:56.613Z,93268.66
2022-08-08T05:55:25.535Z,93268.94
2022-08-08T05:58:05.335Z,93268.47
2022-08-08T06:00:35.078Z,93266.88
2022-08-08T06:03:17.243Z,93267.16
2022-08-08T06:05:59.208Z,93267.44
2022-08-08T06:08:36.192Z,93270.34
2022-08-08T06:11:08.530Z,93271.41
2022-08-08T06:13:47.538Z,93279.31
2022-08-08T06:16:25.072Z,93276.66
2022-08-08T06:19:05.695Z,93279.84
2022-08-08T06:21:51.123Z,93277.72
2022-08-08T06:24:30.770Z,93279.06
2022-08-08T06:27:06.441Z,93279.31
2022-08-08T06:30:00.132Z,93277.16
2022-08-08T06:32:37.165Z,93281.88
2022-08-08T06:36:00.799Z,93283.97
2022-08-08T06:38:09.452Z,93284.19
2022-08-08T06:40:48.427Z,93289.44
2022-08-08T06:43:28.656Z,93289.13
2022-08-08T06:46:04.047Z,93289.59
2022-08-08T06:48:30.800Z,93276.06
2022-08-08T06:51:00.352Z,93286.81
2022-08-08T06:53:39.359Z,93280.69
2022-08-08T06:56:09.227Z,93284.50
2022-08-08T06:58:36.859Z,93288.63
2022-08-08T07:01:52.201Z,93289.03
2022-08-08T07:04:40.634Z,93297.06
2022-08-08T07:07:12.493Z,93291.84
2022-08-08T07:09:59.400Z,93294.81
2022-08-08T07:12:42.803Z,93297.81
2022-08-08T07:15:23.074Z,93304.03
2022-08-08T07:18:34.557Z,93302.19
2022-08-08T07:20:57.354Z,93302.50
2022-08-08T07:24:01.960Z,93305.81
2022-08-08T07:26:29.068Z,93305.59
2022-08-08T07:29:05.687Z,93313.16
2022-08-08T07:31:36.065Z,93312.44
2022-08-08T07:34:08.831Z,93306.97
2022-08-08T07:36:41.934Z,93316.13
2022-08-08T07:39:22.505Z,93309.66
2022-08-08T07:42:03.715Z,93311.94
2022-08-08T07:44:40.444Z,93317.88
2022-08-08T07:47:11.663Z,93318.78
2022-08-08T07:49:40.456Z,93327.97
2022-08-08T07:52:13.291Z,93323.34
2022-08-08T07:54:57.568Z,93330.94
2022-08-08T07:57:36.113Z,93326.03
2022-08-08T08:00:16.619Z,93327.25
2022-08-08T08:03:20.547Z,93330.31
2022-08-08T08:05:53.301Z,93331.78
2022-08-08T08:08:36.044Z,93332.47
2022-08-08T08:11:03.763Z,93332.56
2022-08-08T08:14:08.481Z,93333.75
2022-08-08T08:16:40.952Z,93334.13
2022-08-08T08:19:10.630Z,93332.66
2022-08-08T08:21:57.274Z,93330.19
2022-08-08T08:24:35.146Z,93330.28
2022-08-08T08:27:03.688Z,93333.63
2022-08-08T08:29:31.093Z,93333.03
2022-08-08T08:32:03.284Z,93331.06
2022-08-08T08:34:33.729Z,93331.75
2022-08-08T08:37:07.549Z,93332.13
2022-08-08T08:39:59.403Z,93332.59
2022-08-08T08:42:29.169Z,93328.75
2022-08-08T08:45:01.039Z,93329.31
2022-08-08T08:47:33.798Z,93327.34
2022-08-08T08:50:17.144Z,93341.03
2022-08-08T08:53:04.961Z,93329.16
2022-08-08T08:55:49.529Z,93332.19
2022-08-08T08:58:37.902Z,93328.34
2022-08-08T09:01:09.765Z,93326.03
2022-08-08T09:03:50.994Z,93333.59
2022-08-08T09:06:33.944Z,93332.06
2022-08-08T09:09:25.977Z,93332.06
2022-08-08T09:12:08.139Z,93335.41
2022-08-08T09:14:42.565Z,93334.38
2022-08-08T09:17:19.129Z,93339.78
2022-08-08T09:21:57.060Z,93335.59
2022-08-08T09:22:40.123Z,93335.75
2022-08-08T09:25:09.809Z,93342.22
2022-08-08T09:27:42.042Z,93349.16
2022-08-08T09:30:25.980Z,93340.88
2022-08-08T09:33:54.550Z,93343.09
2022-08-08T09:35:49.023Z,93341.25
2022-08-08T09:38:52.008Z,93344.41
2022-08-08T09:41:54.814Z,93345.34
2022-08-08T09:44:34.654Z,93338.16
2022-08-08T09:47:35.454Z,93346.66
2022-08-08T09:50:04.779Z,93342.88
2022-08-08T09:52:56.417Z,93333.66
2022-08-08T09:56:03.100Z,93320.03
2022-08-08T09:58:25.926Z,93332.13
2022-08-08T10:01:14.274Z,93337.81
2022-08-08T10:03:42.499Z,93333.41
2022-08-08T10:06:17.662Z,93325.22
2022-08-08T10:08:46.842Z,93326.63
2022-08-08T10:12:26.037Z,93332.16
2022-08-08T10:14:27.614Z,93321.75
2022-08-08T10:16:55.768Z,93328.53
2022-08-08T10:19:45.857Z,93331.97
2022-08-08T10:22:19.351Z,93321.72
2022-08-08T10:24:48.734Z,93327.19
2022-08-08T10:27:23.685Z,93329.19
2022-08-08T10:30:01.340Z,93326.31
2022-08-08T10:32:39.060Z,93325.03
2022-08-08T10:35:20.377Z,93327.81
2022-08-08T10:38:07.988Z,93321.66
2022-08-08T10:40:38.141Z,93325.00
2022-08-08T10:43:06.779Z,93323.25
2022-08-08T10:45:57.236Z,93312.72
2022-08-08T10:48:35.933Z,93320.09
2022-08-08T10:51:14.925Z,93312.56
2022-08-08T10:53:58.087Z,93319.25
2022-08-08T10:56:31.992Z,93323.44
2022-08-08T10:59:09.399Z,93318.31
2022-08-08T11:01:39.306Z,93313.69
2022-08-08T11:04:10.396Z,93301.19
2022-08-08T11:06:41.719Z,93308.56
2022-08-08T11:09:19.261Z,93303.56
2022-08-08T11:12:05.864Z,93316.63
2022-08-08T11:14:33.604Z,93309.25
2022-08-08T11:17:02.766Z,93303.88
2022-08-08T11:19:33.617Z,93309.44
2022-08-08T11:22:04.151Z,93310.69
2022-08-08T11:24:35.823Z,93310.56
2022-08-08T11:27:10.480Z,93297.97
2022-08-08T11:29:58.022Z,93296.00
2022-08-08T11:32:41.201Z,93283.81
2022-08-08T11:35:25.013Z,93283.56
2022-08-08T11:38:35.860Z,93309.72
2022-08-08T11:40:46.452Z,93301.31
2022-08-08T11:43:17.741Z,93310.91
2022-08-08T11:46:09.165Z,93295.56
2022-08-08T11:48:35.580Z,93300.97
2022-08-08T11:51:30.010Z,93296.56
2022-08-08T11:53:59.147Z,93292.28
2022-08-08T11:56:34.610Z,93299.22
2022-08-08T11:59:09.497Z,93300.31
2022-08-08T12:01:37.107Z,93290.22
2022-08-08T12:04:06.818Z,93297.34
2022-08-08T12:06:34.013Z,93292.38
2022-08-08T12:09:09.974Z,93299.47
2022-08-08T12:11:44.094Z,93297.28
2022-08-08T12:14:22.288Z,93287.53
2022-08-08T12:16:52.482Z,93289.78
2022-08-08T12:19:37.405Z,93298.63
2022-08-08T12:22:13.288Z,93285.44
2022-08-08T12:24:53.971Z,93296.16
2022-08-08T12:27:26.454Z,93288.66
2022-08-08T12:29:59.051Z,93284.69
2022-08-08T12:32:26.192Z,93298.59
2022-08-08T12:35:13.556Z,93292.38
2022-08-08T12:37:48.127Z,93289.47
2022-08-08T12:40:54.836Z,93290.03
2022-08-08T12:43:32.742Z,93283.53
2022-08-08T12:46:19.260Z,93297.75
2022-08-08T12:49:22.246Z,93281.41
2022-08-08T12:51:49.620Z,93275.19
2022-08-08T12:54:36.663Z,93286.09
2022-08-08T12:57:21.185Z,93289.03
2022-08-08T13:00:04.877Z,93279.38
2022-08-08T13:02:42.012Z,93280.09
2022-08-08T13:05:26.791Z,93279.31
2022-08-08T13:08:20.501Z,93282.97
2022-08-08T13:10:56.536Z,93290.66
2022-08-08T13:13:34.882Z,93289.16
2022-08-08T13:16:25.461Z,93284.34
2022-08-08T13:19:00.405Z,93294.53
2022-08-08T13:21:36.559Z,93282.53
2022-08-08T13:24:18.402Z,93284.19
2022-08-08T13:27:20.018Z,93276.47
2022-08-08T13:29:50.314Z,93272.53
2022-08-08T13:32:17.263Z,93280.28
2022-08-08T13:34:52.877Z,93265.84
2022-08-08T13:37:27.874Z,93263.38
2022-08-08T13:40:07.403Z,93265.94
2022-08-08T13:42:34.562Z,93261.16
2022-08-08T13:45:02.229Z,93260.97
2022-08-08T13:47:31.421Z,93260.38
2022-08-08T13:50:36.487Z,93262.97
2022-08-08T13:52:48.253Z,93261.66
2022-08-08T13:55:28.797Z,93261.88
2022-08-08T13:58:07.754Z,93258.47
2022-08-08T14:00:45.268Z,93250.94
2022-08-08T14:03:47.064Z,93260.75
2022-08-08T14:06:09.444Z,93262.63
2022-08-08T14:08:57.422Z,93257.69
2022-08-08T14:11:27.913Z,93253.50
2022-08-08T14:13:59.553Z,93246.06
2022-08-08T14:16:27.654Z,93244.38
2022-08-08T14:18:56.172Z,93257.34
2022-08-08T14:21:39.699Z,93254.03
2022-08-08T14:24:08.876Z,93251.78
2022-08-08T14:26:46.424Z,93245.16
2022-08-08T14:29:28.399Z,93242.81
2022-08-08T14:32:09.885Z,93239.34
2022-08-08T14:34:43.524Z,93238.53
2022-08-08T14:37:16.417Z,93243.22
2022-08-08T14:40:05.780Z,93236.44
2022-08-08T14:42:37.087Z,93244.22
2022-08-08T14:45:33.146Z,93246.88
2022-08-08T14:48:17.674Z,93240.94
2022-08-08T14:51:06.474Z,93240.94
2022-08-08T14:53:55.859Z,93236.53
2022-08-08T14:56:25.138Z,93233.50
2022-08-08T14:58:52.457Z,93235.16
2022-08-08T15:01:37.627Z,93240.34
2022-08-08T15:04:09.521Z,93243.75
2022-08-08T15:06:36.297Z,93246.34
2022-08-08T15:09:04.314Z,93241.81
2022-08-08T15:11:36.475Z,93241.91
2022-08-08T15:14:13.675Z,93243.09
2022-08-08T15:16:42.634Z,93234.84
2022-08-08T15:19:11.315Z,93231.47
2022-08-08T15:21:42.878Z,93231.84
2022-08-08T15:24:14.052Z,93238.41
2022-08-08T15:26:46.618Z,93238.47
2022-08-08T15:29:19.156Z,93239.66
2022-08-08T15:32:17.863Z,93232.47
2022-08-08T15:34:36.564Z,93230.28
2022-08-08T15:37:06.113Z,93233.53
2022-08-08T15:39:38.444Z,93221.66
2022-08-08T15:42:10.415Z,93232.16
2022-08-08T15:44:42.281Z,93231.09
2022-08-08T15:47:15.908Z,93230.41
2022-08-08T15:49:47.829Z,93223.31
2022-08-08T15:52:15.924Z,93232.69
2022-08-08T15:54:46.246Z,93228.59
2022-08-08T15:57:15.660Z,93225.38
2022-08-08T16:00:05.837Z,93233.75
2022-08-08T16:02:44.151Z,93229.75
2022-08-08T16:05:17.637Z,93233.59
2022-08-08T16:07:52.505Z,93226.59
2022-08-08T16:13:11.640Z,93238.31
2022-08-08T16:13:34.313Z,93235.31
2022-08-08T16:15:58.267Z,93240.72
2022-08-08T16:18:32.106Z,93237.97
2022-08-08T16:21:00.454Z,93244.78
2022-08-08T16:23:32.521Z,93235.31
2022-08-08T16:26:04.340Z,93242.06
2022-08-08T16:28:33.979Z,93235.44
2022-08-08T16:31:03.248Z,93231.91
2022-08-08T16:33:38.667Z,93238.97
2022-08-08T16:36:08.586Z,93239.03
2022-08-08T16:38:40.497Z,93238.25
2022-08-08T16:41:11.977Z,93238.31
2022-08-08T16:43:51.089Z,93239.38
2022-08-08T16:46:43.005Z,93234.81
2022-08-08T16:49:09.029Z,93241.00
2022-08-08T16:55:00.740Z,93236.25
2022-08-08T16:55:01.328Z,93231.19
2022-08-08T16:57:22.752Z,93243.00
2022-08-08T17:00:01.212Z,93239.06
2022-08-08T17:02:39.552Z,93238.38
2022-08-08T17:05:08.277Z,93236.47
2022-08-08T17:07:37.804Z,93231.03
2022-08-08T17:10:08.763Z,93243.78
2022-08-08T17:12:36.589Z,93227.66
2022-08-08T17:15:17.997Z,93235.75
2022-08-08T17:18:02.564Z,93233.75
2022-08-08T17:20:39.744Z,93240.06
2022-08-08T17:23:18.381Z,93250.81
2022-08-08T17:25:54.936Z,93240.34
2022-08-08T17:28:34.289Z,93251.84
2022-08-08T17:31:39.473Z,93243.59
2022-08-08T17:34:49.251Z,93245.84
2022-08-08T17:37:00.488Z,93244.38
2022-08-08T17:40:03.850Z,93248.66
2022-08-08T17:42:18.395Z,93245.84
2022-08-08T17:44:46.611Z,93251.75
2022-08-08T17:47:27.416Z,93249.44
2022-08-08T17:50:02.620Z,93246.84
2022-08-08T17:52:34.278Z,93256.44
2022-08-08T17:55:05.042Z,93255.22
2022-08-08T17:57:35.191Z,93251.59
2022-08-08T18:00:04.638Z,93255.75
2022-08-08T18:02:40.126Z,93256.75
2022-08-08T18:05:14.659Z,93256.56
2022-08-08T18:08:02.189Z,93263.34
2022-08-08T18:10:31.410Z,93268.22
2022-08-08T18:12:58.277Z,93267.50
2022-08-08T18:15:25.240Z,93278.75
2022-08-08T18:18:05.271Z,93274.50
2022-08-08T18:20:52.215Z,93281.94
2022-08-08T18:23:21.883Z,93275.63
2022-08-08T18:25:50.402Z,93278.66
2022-08-08T18:28:23.560Z,93285.41
2022-08-08T18:30:52.350Z,93291.25
2022-08-08T18:33:36.401Z,93284.22
2022-08-08T18:36:11.545Z,93289.38
2022-08-08T18:38:49.799Z,93295.91
2022-08-08T18:41:16.350Z,93287.84
2022-08-08T18:43:45.908Z,93290.59
2022-08-08T18:46:57.098Z,93298.84
2022-08-08T18:48:58.946Z,93297.00
2022-08-08T18:51:53.281Z,93301.19
2022-08-08T18:54:22.542Z,93292.59
2022-08-08T18:56:53.817Z,93300.00
2022-08-08T18:59:20.453Z,93306.38
2022-08-08T19:02:27.956Z,93307.56
2022-08-08T19:04:36.289Z,93307.66
2022-08-08T19:07:03.877Z,93314.97
2022-08-08T19:09:48.498Z,93322.00
2022-08-08T19:12:16.688Z,93327.94
2022-08-08T19:14:43.390Z,93328.06
2022-08-08T19:17:11.006Z,93339.91
2022-08-08T19:19:44.194Z,93334.19
2022-08-08T19:22:26.056Z,93341.38
2022-08-08T19:25:44.282Z,93351.09
2022-08-08T19:27:57.089Z,93349.72
2022-08-08T19:30:26.848Z,93351.53
2022-08-08T19:32:54.004Z,93347.78
2022-08-08T19:35:25.612Z,93353.69
2022-08-08T19:38:11.192Z,93358.53
2022-08-08T19:40:43.256Z,93359.00
2022-08-08T19:43:11.961Z,93366.41
2022-08-08T19:45:58.304Z,93364.31
2022-08-08T19:48:28.731Z,93365.97
2022-08-08T19:50:57.321Z,93374.28
2022-08-08T19:53:53.239Z,93377.56
2022-08-08T19:56:13.978Z,93372.38
2022-08-08T19:58:43.553Z,93373.97
2022-08-08T20:01:22.780Z,93378.25
2022-08-08T20:04:02.376Z,93376.25
2022-08-08T20:06:30.064Z,93379.28
2022-08-08T20:08:56.917Z,93373.16
2022-08-08T20:11:24.361Z,93375.25
2022-08-08T20:14:31.927Z,93376.78
2022-08-08T20:16:40.564Z,93379.63
2022-08-08T20:19:08.742Z,93380.56
2022-08-08T20:21:37.289Z,93378.53
2022-08-08T20:24:07.939Z,93380.56
2022-08-08T20:26:35.838Z,93373.66
2022-08-08T20:29:06.520Z,93370.50
2022-08-08T20:31:46.981Z,93371.75
2022-08-08T20:34:29.015Z,93367.47
2022-08-08T20:36:59.395Z,93378.94
2022-08-08T20:39:26.994Z,93378.56
2022-08-08T20:42:00.731Z,93367.56
2022-08-08T20:44:27.398Z,93371.75
2022-08-08T20:46:53.963Z,93373.13
2022-08-08T20:49:21.894Z,93375.16
2022-08-08T20:51:48.572Z,93373.22
2022-08-08T20:54:26.348Z,93377.25
2022-08-08T20:57:16.611Z,93384.75
2022-08-08T20:59:41.825Z,93380.38
2022-08-08T21:02:12.841Z,93376.56
2022-08-08T21:04:43.579Z,93375.88
2022-08-08T21:07:16.371Z,93378.13
2022-08-08T21:10:01.692Z,93369.31
2022-08-08T21:12:33.026Z,93379.81
2022-08-08T21:15:07.209Z,93375.16
2022-08-08T21:17:39.296Z,93377.47
2022-08-08T21:20:07.561Z,93378.16
2022-08-08T21:22:34.131Z,93381.84
2022-08-08T21:25:00.800Z,93382.31
2022-08-08T21:27:38.780Z,93389.00
2022-08-08T21:30:18.610Z,93384.41
2022-08-08T21:32:51.165Z,93384.78
2022-08-08T21:36:14.950Z,93383.00
2022-08-08T21:38:16.031Z,93383.81
2022-08-08T21:40:56.256Z,93386.66
2022-08-08T21:43:33.350Z,93387.38
2022-08-08T21:48:07.087Z,93384.00
2022-08-08T21:48:57.831Z,93384.50
2022-08-08T21:54:23.307Z,93386.97
2022-08-08T21:54:33.841Z,93384.41
2022-08-08T21:57:02.880Z,93383.72
2022-08-08T22:00:03.257Z,93383.00
2022-08-08T22:02:19.401Z,93382.34
2022-08-08T22:04:49.882Z,93387.34
2022-08-08T22:07:17.969Z,93383.97
2022-08-08T22:09:45.719Z,93389.41
2022-08-08T22:12:16.886Z,93395.34
2022-08-08T22:14:47.267Z,93389.84
2022-08-08T22:17:19.378Z,93388.31
2022-08-08T22:20:12.987Z,93387.84
2022-08-08T22:22:37.965Z,93386.84
2022-08-08T22:25:19.855Z,93393.13
2022-08-08T22:28:04.493Z,93389.25
2022-08-08T22:30:43.814Z,93393.28
2022-08-08T22:33:22.266Z,93395.81
2022-08-08T22:36:12.338Z,93390.91
2022-08-08T22:38:48.182Z,93385.41
2022-08-08T22:41:21.098Z,93394.09
2022-08-08T22:44:01.903Z,93391.72
2022-08-08T22:46:32.880Z,93383.06
2022-08-08T22:48:59.526Z,93391.88
2022-08-08T22:51:28.905Z,93396.19
2022-08-08T22:54:30.866Z,93394.38
2022-08-08T22:56:42.897Z,93391.78
2022-08-08T22:59:14.189Z,93389.66
2022-08-08T23:02:02.196Z,93389.31
2022-08-08T23:04:31.833Z,93385.06
2022-08-08T23:07:03.088Z,93393.59
2022-08-08T23:09:30.993Z,93384.91
2022-08-08T23:12:27.876Z,93382.31
2022-08-08T23:14:56.043Z,93385.91
2022-08-08T23:17:24.169Z,93384.81
2022-08-08T23:19:56.827Z,93383.84
2022-08-08T23:22:23.641Z,93388.06
2022-08-08T23:24:50.716Z,93384.91
2022-08-08T23:27:39.204Z,93390.91
2022-08-08T23:30:06.041Z,93392.03
2022-08-08T23:32:36.257Z,93389.88
2022-08-08T23:35:12.420Z,93383.25
2022-08-08T23:38:01.756Z,93390.22
2022-08-08T23:40:30.193Z,93382.59
2022-08-08T23:42:57.070Z,93381.31
2022-08-08T23:49:07.123Z,93373.13
2022-08-08T23:49:07.965Z,93379.22
2022-08-08T23:50:58.109Z,93378.97
2022-08-08T23:53:55.641Z,93377.47
2022-08-08T23:56:12.092Z,93372.44
2022-08-08T23:58:38.987Z,93371.63
